createdAt,value
2018-11-12T00:02:18.646Z,34.80
2018-11-12T00:04:47.133Z,31.80
2018-11-12T00:07:15.464Z,31.37
2018-11-12T00:09:43.757Z,36.73
2018-11-12T00:12:12.011Z,37.43
2018-11-12T00:14:40.300Z,32.53
2018-11-12T00:17:08.619Z,33.33
2018-11-12T00:19:36.885Z,37.37
2018-11-12T00:22:05.699Z,32.33
2018-11-12T00:24:33.848Z,35.23
2018-11-12T00:27:02.106Z,32.60
2018-11-12T00:29:35.806Z,28.73
2018-11-12T00:32:04.117Z,31.70
2018-11-12T00:34:32.362Z,28.50
2018-11-12T00:37:00.613Z,29.73
2018-11-12T00:39:28.853Z,32.97
2018-11-12T00:41:57.372Z,34.53
2018-11-12T00:44:25.678Z,31.03
2018-11-12T00:46:53.968Z,32.63
2018-11-12T00:49:22.266Z,28.27
2018-11-12T00:51:50.696Z,30.83
2018-11-12T00:54:18.980Z,32.07
2018-11-12T00:56:47.413Z,31.67
2018-11-12T00:59:15.692Z,29.33
2018-11-12T01:01:43.947Z,30.73
2018-11-12T01:04:12.262Z,30.27
2018-11-12T01:06:40.659Z,27.40
2018-11-12T01:09:10.600Z,29.07
2018-11-12T01:11:38.874Z,27.37
2018-11-12T01:14:07.184Z,33.80
2018-11-12T01:16:35.430Z,39.57
2018-11-12T01:19:03.782Z,32.20
2018-11-12T01:21:32.086Z,27.07
2018-11-12T01:24:00.625Z,29.93
2018-11-12T01:26:28.853Z,27.70
2018-11-12T01:28:57.976Z,25.27
2018-11-12T01:31:26.242Z,28.10
2018-11-12T01:33:54.579Z,31.73
2018-11-12T01:36:22.887Z,29.17
2018-11-12T01:38:51.289Z,23.57
2018-11-12T01:41:19.563Z,19.97
2018-11-12T01:43:47.984Z,21.17
2018-11-12T01:46:16.221Z,23.17
2018-11-12T01:48:44.461Z,24.20
2018-11-12T01:51:12.716Z,27.20
2018-11-12T01:53:41.021Z,28.47
2018-11-12T01:56:09.384Z,21.00
2018-11-12T01:58:37.689Z,21.07
2018-11-12T02:01:05.938Z,19.73
2018-11-12T02:03:34.214Z,20.67
2018-11-12T02:06:02.742Z,17.43
2018-11-12T02:08:30.978Z,20.47
2018-11-12T02:10:59.672Z,20.50
2018-11-12T02:13:27.933Z,18.33
2018-11-12T02:15:56.285Z,19.73
2018-11-12T02:18:24.536Z,18.17
2018-11-12T02:20:53.260Z,21.13
2018-11-12T02:23:21.486Z,24.03
2018-11-12T02:25:49.933Z,21.23
2018-11-12T02:28:18.244Z,18.27
2018-11-12T02:30:47.620Z,16.57
2018-11-12T02:33:16.478Z,17.13
2018-11-12T02:35:44.894Z,19.50
2018-11-12T02:38:13.207Z,19.30
2018-11-12T02:40:41.431Z,17.73
2018-11-12T02:43:09.709Z,18.13
2018-11-12T02:45:37.953Z,17.60
2018-11-12T02:48:06.211Z,23.67
2018-11-12T02:50:34.818Z,19.67
2018-11-12T02:53:03.072Z,16.70
2018-11-12T02:55:31.359Z,18.23
2018-11-12T02:57:59.718Z,20.13
2018-11-12T03:00:27.939Z,16.47
2018-11-12T03:02:56.352Z,18.33
2018-11-12T03:05:24.647Z,20.83
2018-11-12T03:07:53.202Z,25.03
2018-11-12T03:10:23.678Z,20.47
2018-11-12T03:12:52.311Z,20.17
2018-11-12T03:15:21.328Z,18.70
2018-11-12T03:17:50.481Z,17.77
2018-11-12T03:20:20.106Z,21.67
2018-11-12T03:22:48.493Z,14.27
2018-11-12T03:25:18.144Z,15.83
2018-11-12T03:27:47.028Z,14.27
2018-11-12T03:30:16.636Z,17.37
2018-11-12T03:32:45.691Z,15.20
2018-11-12T03:35:15.247Z,14.93
2018-11-12T03:37:44.523Z,14.43
2018-11-12T03:40:17.129Z,13.20
2018-11-12T03:42:45.948Z,14.03
2018-11-12T03:45:22.357Z,11.27
2018-11-12T03:47:50.782Z,11.17
2018-11-12T03:50:20.434Z,12.67
2018-11-12T03:52:48.762Z,13.80
2018-11-12T03:55:18.178Z,11.83
2018-11-12T03:57:46.466Z,12.20
2018-11-12T04:00:19.436Z,13.67
2018-11-12T04:02:47.569Z,13.27
2018-11-12T04:05:15.912Z,15.97
2018-11-12T04:07:44.278Z,16.20
2018-11-12T04:10:14.861Z,12.73
2018-11-12T04:12:43.303Z,16.23
2018-11-12T04:15:14.189Z,16.57
2018-11-12T04:17:42.556Z,16.40
2018-11-12T04:20:12.595Z,19.43
2018-11-12T04:22:41.753Z,16.30
2018-11-12T04:25:11.601Z,13.53
2018-11-12T04:27:39.901Z,22.67
2018-11-12T04:30:12.627Z,28.43
2018-11-12T04:32:41.537Z,31.03
2018-11-12T04:35:10.181Z,27.20
2018-11-12T04:37:38.584Z,14.73
2018-11-12T04:40:08.891Z,12.10
2018-11-12T04:42:37.769Z,13.37
2018-11-12T04:45:07.681Z,13.27
2018-11-12T04:47:36.006Z,12.53
2018-11-12T04:50:06.112Z,13.77
2018-11-12T04:52:34.373Z,12.47
2018-11-12T04:55:02.894Z,13.90
2018-11-12T04:57:31.254Z,15.37
2018-11-12T05:00:00.330Z,23.67
2018-11-12T05:02:29.904Z,21.97
2018-11-12T05:05:00.218Z,23.57
2018-11-12T05:07:28.488Z,25.67
2018-11-12T05:09:56.804Z,26.10
2018-11-12T05:12:25.717Z,27.40
2018-11-12T05:14:54.229Z,25.20
2018-11-12T05:17:22.621Z,24.50
2018-11-12T05:19:54.368Z,18.83
2018-11-12T05:22:22.681Z,20.47
2018-11-12T05:24:50.974Z,22.57
2018-11-12T05:27:19.305Z,19.30
2018-11-12T05:29:48.214Z,16.87
2018-11-12T05:32:16.608Z,20.57
2018-11-12T05:34:45.841Z,20.37
2018-11-12T05:37:15.228Z,19.47
2018-11-12T05:39:43.526Z,20.57
2018-11-12T05:42:11.781Z,21.47
2018-11-12T05:44:40.067Z,19.20
2018-11-12T05:47:08.432Z,18.90
2018-11-12T05:49:37.544Z,17.67
2018-11-12T05:52:06.122Z,17.53
2018-11-12T05:54:34.856Z,17.63
2018-11-12T05:57:05.306Z,19.40
2018-11-12T05:59:33.662Z,18.73
2018-11-12T06:02:02.292Z,19.23
2018-11-12T06:04:30.571Z,18.50
2018-11-12T06:06:58.946Z,17.07
2018-11-12T06:09:27.349Z,19.07
2018-11-12T06:11:55.901Z,20.10
2018-11-12T06:14:24.250Z,20.17
2018-11-12T06:16:52.821Z,16.17
2018-11-12T06:19:21.194Z,15.43
2018-11-12T06:21:49.456Z,19.00
2018-11-12T06:24:18.110Z,16.57
2018-11-12T06:26:46.452Z,18.37
2018-11-12T06:29:14.760Z,17.60
2018-11-12T06:31:43.076Z,17.87
2018-11-12T06:34:11.550Z,20.07
2018-11-12T06:36:39.870Z,17.60
2018-11-12T06:39:09.232Z,19.33
2018-11-12T06:41:37.751Z,19.30
2018-11-12T06:44:06.827Z,19.87
2018-11-12T06:46:35.421Z,17.17
2018-11-12T06:49:03.742Z,18.93
2018-11-12T06:51:32.009Z,16.80
2018-11-12T06:54:00.516Z,17.67
2018-11-12T06:56:28.785Z,19.53
2018-11-12T06:58:57.389Z,15.30
2018-11-12T07:01:25.836Z,14.07
2018-11-12T07:03:54.184Z,13.63
2018-11-12T07:06:22.527Z,12.80
2018-11-12T07:08:51.132Z,16.90
2018-11-12T07:11:19.397Z,13.53
2018-11-12T07:13:47.700Z,16.07
2018-11-12T07:16:16.000Z,14.77
2018-11-12T07:18:44.284Z,13.87
2018-11-12T07:21:12.557Z,15.07
2018-11-12T07:23:40.837Z,17.73
2018-11-12T07:26:09.098Z,12.60
2018-11-12T07:28:37.405Z,13.87
2018-11-12T07:31:06.012Z,10.67
2018-11-12T07:33:34.297Z,12.37
2018-11-12T07:36:03.385Z,12.50
2018-11-12T07:38:31.664Z,15.43
2018-11-12T07:41:00.108Z,12.40
2018-11-12T07:43:28.409Z,14.23
2018-11-12T07:45:56.932Z,16.57
2018-11-12T07:48:25.260Z,12.50
2018-11-12T07:50:53.597Z,14.60
2018-11-12T07:53:21.878Z,11.27
2018-11-12T07:55:50.126Z,12.13
2018-11-12T07:58:18.438Z,11.47
2018-11-12T08:00:46.716Z,13.77
2018-11-12T08:03:15.141Z,12.83
2018-11-12T08:05:43.242Z,10.60
2018-11-12T08:08:11.564Z,27.20
2018-11-12T08:10:39.845Z,10.37
2018-11-12T08:13:08.143Z,12.23
2018-11-12T08:15:36.404Z,9.07
2018-11-12T08:18:04.716Z,9.50
2018-11-12T08:20:33.116Z,9.17
2018-11-12T08:23:01.527Z,9.90
2018-11-12T08:25:29.905Z,8.90
2018-11-12T08:27:58.350Z,10.27
2018-11-12T08:30:27.828Z,8.70
2018-11-12T08:32:57.440Z,9.23
2018-11-12T08:35:25.865Z,10.63
2018-11-12T08:37:54.581Z,11.67
2018-11-12T08:40:24.329Z,13.53
2018-11-12T08:42:52.880Z,11.07
2018-11-12T08:45:21.213Z,13.03
2018-11-12T08:47:50.941Z,13.10
2018-11-12T08:50:21.514Z,9.50
2018-11-12T08:52:50.657Z,11.37
2018-11-12T08:55:20.320Z,8.00
2018-11-12T08:57:50.944Z,8.50
2018-11-12T09:00:20.321Z,8.50
2018-11-12T09:02:48.790Z,12.03
2018-11-12T09:05:18.135Z,7.83
2018-11-12T09:07:48.014Z,9.43
2018-11-12T09:10:18.226Z,11.03
2018-11-12T09:12:46.893Z,12.67
2018-11-12T09:15:15.361Z,8.90
2018-11-12T09:17:44.450Z,6.83
2018-11-12T09:20:15.220Z,10.63
2018-11-12T09:22:43.469Z,7.40
2018-11-12T09:25:14.547Z,6.07
2018-11-12T09:27:42.960Z,7.03
2018-11-12T09:30:17.274Z,5.30
2018-11-12T09:32:45.828Z,19.57
2018-11-12T09:35:15.197Z,6.60
2018-11-12T09:37:44.822Z,5.63
2018-11-12T09:40:46.098Z,6.10
2018-11-12T09:43:14.439Z,8.10
2018-11-12T09:45:42.731Z,5.57
2018-11-12T09:48:10.929Z,5.50
2018-11-12T09:50:39.241Z,7.60
2018-11-12T09:53:07.522Z,5.63
2018-11-12T09:55:35.809Z,5.63
2018-11-12T09:58:07.118Z,5.70
2018-11-12T10:00:35.622Z,6.30
2018-11-12T10:03:04.616Z,5.13
2018-11-12T10:05:33.730Z,7.10
2018-11-12T10:08:05.194Z,6.13
2018-11-12T10:10:47.626Z,6.60
2018-11-12T10:13:16.993Z,5.43
2018-11-12T10:15:47.076Z,6.00
2018-11-12T10:20:39.949Z,12.87
2018-11-12T10:23:08.245Z,7.43
2018-11-12T10:25:36.524Z,11.70
2018-11-12T10:28:04.853Z,9.23
2018-11-12T10:30:33.149Z,5.60
2018-11-12T10:33:01.498Z,7.17
2018-11-12T10:35:29.784Z,7.33
2018-11-12T10:37:58.098Z,8.03
2018-11-12T10:40:26.809Z,5.20
2018-11-12T10:42:55.088Z,6.83
2018-11-12T10:45:23.380Z,10.10
2018-11-12T10:47:52.618Z,7.07
2018-11-12T10:50:21.210Z,7.20
2018-11-12T10:52:49.509Z,6.80
2018-11-12T10:55:19.262Z,7.57
2018-11-12T10:57:47.872Z,6.70
2018-11-12T11:00:24.790Z,6.80
2018-11-12T11:02:59.721Z,6.43
2018-11-12T11:05:28.001Z,7.87
2018-11-12T11:07:56.296Z,7.33
2018-11-12T11:10:25.846Z,7.30
2018-11-12T11:12:54.794Z,7.50
2018-11-12T11:15:23.044Z,7.40
2018-11-12T11:17:51.284Z,7.87
2018-11-12T11:20:19.570Z,7.70
2018-11-12T11:22:47.842Z,7.23
2018-11-12T11:25:16.076Z,8.20
2018-11-12T11:27:44.385Z,8.03
2018-11-12T11:30:14.030Z,10.33
2018-11-12T11:32:42.368Z,10.00
2018-11-12T11:35:11.938Z,7.83
2018-11-12T11:37:40.239Z,9.77
2018-11-12T11:40:12.071Z,8.83
2018-11-12T11:42:40.493Z,9.83
2018-11-12T11:45:16.320Z,10.43
2018-11-12T11:47:45.504Z,9.40
2018-11-12T11:50:15.288Z,9.43
2018-11-12T11:52:43.494Z,9.40
2018-11-12T11:55:13.304Z,7.83
2018-11-12T11:57:41.748Z,8.07
2018-11-12T12:00:19.886Z,9.33
2018-11-12T12:02:49.338Z,9.30
2018-11-12T12:05:18.320Z,9.60
2018-11-12T12:07:46.596Z,11.53
2018-11-12T12:10:15.740Z,10.50
2018-11-12T12:12:44.728Z,10.67
2018-11-12T12:15:14.366Z,12.57
2018-11-12T12:17:42.613Z,9.50
2018-11-12T12:20:13.213Z,10.80
2018-11-12T12:22:41.492Z,11.37
2018-11-12T12:25:11.647Z,10.67
2018-11-12T12:27:40.277Z,10.90
2018-11-12T12:30:13.257Z,11.27
2018-11-12T12:32:42.101Z,12.00
2018-11-12T12:35:11.365Z,11.40
2018-11-12T12:37:39.885Z,11.60
2018-11-12T12:40:09.517Z,11.70
2018-11-12T12:42:38.232Z,11.03
2018-11-12T12:45:07.524Z,13.30
2018-11-12T12:47:35.746Z,14.20
2018-11-12T12:50:05.208Z,15.23
2018-11-12T12:52:33.493Z,11.90
2018-11-12T12:55:01.966Z,12.07
2018-11-12T12:57:31.010Z,13.10
2018-11-12T12:59:59.432Z,11.57
2018-11-12T13:02:27.654Z,14.00
2018-11-12T13:04:55.986Z,11.67
2018-11-12T13:07:24.279Z,21.10
2018-11-12T13:09:52.574Z,10.87
2018-11-12T13:12:21.484Z,12.27
2018-11-12T13:14:50.047Z,11.60
2018-11-12T13:17:18.169Z,11.00
2018-11-12T13:19:46.446Z,11.77
2018-11-12T13:22:14.761Z,22.30
2018-11-12T13:24:43.155Z,12.93
2018-11-12T13:27:11.532Z,12.67
2018-11-12T13:29:39.970Z,12.67
2018-11-12T13:32:08.590Z,13.73
2018-11-12T13:34:36.909Z,16.87
2018-11-12T13:37:05.421Z,12.30
2018-11-12T13:39:33.849Z,12.80
2018-11-12T13:42:02.069Z,13.03
2018-11-12T13:44:30.357Z,13.10
2018-11-12T13:46:59.198Z,15.73
2018-11-12T13:49:27.483Z,13.40
2018-11-12T13:51:56.656Z,13.20
2018-11-12T13:54:25.049Z,15.90
2018-11-12T13:56:53.349Z,14.57
2018-11-12T13:59:21.656Z,15.57
2018-11-12T14:01:49.954Z,14.10
2018-11-12T14:04:18.488Z,13.80
2018-11-12T14:06:46.797Z,18.50
2018-11-12T14:09:15.151Z,15.37
2018-11-12T14:11:43.433Z,13.70
2018-11-12T14:14:11.868Z,13.50
2018-11-12T14:16:40.234Z,14.17
2018-11-12T14:19:08.776Z,14.27
2018-11-12T14:21:37.256Z,13.90
2018-11-12T14:24:05.519Z,13.10
2018-11-12T14:26:33.852Z,15.83
2018-11-12T14:29:02.222Z,13.80
2018-11-12T14:31:30.613Z,15.40
2018-11-12T14:33:58.969Z,14.80
2018-11-12T14:36:27.634Z,15.07
2018-11-12T14:38:56.235Z,14.57
2018-11-12T14:41:24.483Z,15.03
2018-11-12T14:43:52.789Z,13.23
2018-11-12T14:46:21.053Z,13.93
2018-11-12T14:48:49.309Z,13.73
2018-11-12T14:51:17.769Z,13.83
2018-11-12T14:53:45.859Z,16.67
2018-11-12T14:56:14.773Z,14.23
2018-11-12T14:58:43.044Z,19.63
2018-11-12T15:01:11.376Z,19.90
2018-11-12T15:03:39.677Z,26.17
2018-11-12T15:06:08.107Z,25.13
2018-11-12T15:08:36.372Z,25.17
2018-11-12T15:11:04.861Z,17.27
2018-11-12T15:13:33.165Z,15.37
2018-11-12T15:16:01.425Z,13.83
2018-11-12T15:18:29.700Z,14.23
2018-11-12T15:20:58.482Z,18.77
2018-11-12T15:23:26.800Z,13.07
2018-11-12T15:25:55.340Z,13.30
2018-11-12T15:28:23.652Z,12.53
2018-11-12T15:30:51.900Z,15.90
2018-11-12T15:33:20.169Z,14.53
2018-11-12T15:35:48.476Z,13.77
2018-11-12T15:38:16.730Z,12.80
2018-11-12T15:40:44.997Z,13.27
2018-11-12T15:43:13.482Z,12.53
2018-11-12T15:45:41.649Z,12.73
2018-11-12T15:48:09.945Z,11.63
2018-11-12T15:50:38.293Z,11.43
2018-11-12T15:53:06.593Z,11.50
2018-11-12T15:55:34.997Z,12.73
2018-11-12T15:58:03.376Z,11.63
2018-11-12T16:00:31.717Z,11.40
2018-11-12T16:03:00.323Z,12.30
2018-11-12T16:05:28.718Z,21.67
2018-11-12T16:07:57.019Z,12.23
2018-11-12T16:10:25.419Z,11.47
2018-11-12T16:12:53.879Z,12.83
2018-11-12T16:15:23.236Z,12.40
2018-11-12T16:17:51.689Z,12.70
2018-11-12T16:20:25.629Z,12.83
2018-11-12T16:22:54.249Z,13.80
2018-11-12T16:25:23.325Z,12.43
2018-11-12T16:27:51.707Z,13.50
2018-11-12T16:30:20.078Z,11.67
2018-11-12T16:32:48.511Z,12.13
2018-11-12T16:35:18.895Z,13.17
2018-11-12T16:37:48.162Z,12.90
2018-11-12T16:40:16.713Z,12.00
2018-11-12T16:42:46.073Z,11.70
2018-11-12T16:45:15.017Z,12.73
2018-11-12T16:47:43.783Z,12.33
2018-11-12T16:50:12.878Z,12.87
2018-11-12T16:52:41.590Z,12.83
2018-11-12T16:55:14.762Z,15.70
2018-11-12T16:57:43.185Z,14.10
2018-11-12T17:00:13.197Z,13.13
2018-11-12T17:02:42.037Z,29.07
2018-11-12T17:05:18.278Z,40.30
2018-11-12T17:07:46.662Z,18.33
2018-11-12T17:10:16.372Z,14.70
2018-11-12T17:12:45.492Z,13.40
2018-11-12T17:15:14.689Z,13.80
2018-11-12T17:17:43.477Z,15.77
2018-11-12T17:20:13.054Z,13.07
2018-11-12T17:22:41.377Z,14.03
2018-11-12T17:25:10.962Z,15.50
2018-11-12T17:27:39.252Z,13.13
2018-11-12T17:30:09.976Z,13.47
2018-11-12T17:32:38.229Z,13.47
2018-11-12T17:35:08.378Z,16.17
2018-11-12T17:37:36.923Z,15.13
2018-11-12T17:40:09.589Z,15.30
2018-11-12T17:42:37.976Z,15.20
2018-11-12T17:45:09.582Z,15.03
2018-11-12T17:47:38.045Z,14.10
2018-11-12T17:50:07.685Z,17.17
2018-11-12T17:52:36.123Z,16.33
2018-11-12T17:55:05.046Z,15.17
2018-11-12T17:57:33.361Z,20.37
2018-11-12T18:00:01.991Z,24.90
2018-11-12T18:02:30.569Z,25.30
2018-11-12T18:04:58.872Z,26.63
2018-11-12T18:07:27.351Z,17.50
2018-11-12T18:09:55.545Z,18.60
2018-11-12T18:12:23.953Z,17.60
2018-11-12T18:14:52.244Z,17.00
2018-11-12T18:17:20.748Z,16.87
2018-11-12T18:19:49.127Z,39.83
2018-11-12T18:22:17.779Z,23.13
2018-11-12T18:24:46.077Z,24.77
2018-11-12T18:27:14.431Z,20.83
2018-11-12T18:29:42.767Z,19.13
2018-11-12T18:32:11.069Z,21.30
2018-11-12T18:34:39.475Z,21.30
2018-11-12T18:37:08.214Z,19.50
2018-11-12T18:39:36.529Z,26.33
2018-11-12T18:42:04.979Z,23.50
2018-11-12T18:44:33.254Z,23.67
2018-11-12T18:47:01.585Z,21.53
2018-11-12T18:49:29.933Z,23.40
2018-11-12T18:51:58.254Z,19.77
2018-11-12T18:54:26.766Z,20.23
2018-11-12T18:56:55.026Z,22.30
2018-11-12T18:59:23.450Z,21.23
2018-11-12T19:01:51.912Z,20.53
2018-11-12T19:04:20.371Z,18.03
2018-11-12T19:06:48.682Z,20.50
2018-11-12T19:09:17.342Z,20.13
2018-11-12T19:11:45.600Z,22.53
2018-11-12T19:14:13.901Z,19.00
2018-11-12T19:17:46.100Z,20.03
2018-11-12T19:20:15.384Z,18.53
2018-11-12T19:22:43.688Z,21.63
2018-11-12T19:25:12.920Z,18.73
2018-11-12T19:27:41.746Z,22.93
2018-11-12T19:30:19.236Z,22.67
2018-11-12T19:32:47.624Z,19.00
2018-11-12T19:35:17.230Z,17.77
2018-11-12T19:37:45.546Z,21.30
2018-11-12T19:40:15.456Z,20.57
2018-11-12T19:42:44.753Z,23.40
2018-11-12T19:45:13.636Z,19.47
2018-11-12T19:47:42.240Z,21.43
2018-11-12T19:50:15.880Z,22.43
2018-11-12T19:52:45.328Z,18.17
2018-11-12T19:55:13.920Z,18.13
2018-11-12T19:57:42.609Z,18.87
2018-11-12T20:00:13.089Z,19.83
2018-11-12T20:02:42.345Z,19.97
2018-11-12T20:05:10.869Z,19.37
2018-11-12T20:07:39.586Z,18.73
2018-11-12T20:10:09.864Z,20.97
2018-11-12T20:12:38.163Z,21.90
2018-11-12T20:15:06.941Z,18.90
2018-11-12T20:17:35.251Z,19.17
2018-11-12T20:20:03.977Z,17.60
2018-11-12T20:22:32.297Z,18.93
2018-11-12T20:25:01.003Z,19.37
2018-11-12T20:27:29.502Z,17.13
2018-11-12T20:29:57.778Z,17.07
2018-11-12T20:32:26.344Z,17.97
2018-11-12T20:34:54.620Z,18.80
2018-11-12T20:37:23.037Z,15.73
2018-11-12T20:39:51.405Z,18.20
2018-11-12T20:42:19.900Z,21.60
2018-11-12T20:44:48.170Z,15.83
2018-11-12T20:47:16.573Z,17.20
2018-11-12T20:49:44.851Z,16.67
2018-11-12T20:52:13.145Z,17.30
2018-11-12T20:54:41.495Z,17.63
2018-11-12T20:57:09.796Z,18.87
2018-11-12T20:59:38.106Z,18.57
2018-11-12T21:02:06.641Z,18.70
2018-11-12T21:04:35.083Z,18.50
2018-11-12T21:07:03.457Z,16.93
2018-11-12T21:09:31.874Z,16.73
2018-11-12T21:12:00.438Z,19.87
2018-11-12T21:14:29.078Z,17.07
2018-11-12T21:16:57.409Z,17.87
2018-11-12T21:19:25.807Z,19.13
2018-11-12T21:21:54.283Z,20.50
2018-11-12T21:24:23.170Z,19.57
2018-11-12T21:26:51.496Z,19.93
2018-11-12T21:29:19.883Z,17.17
2018-11-12T21:31:48.218Z,17.87
2018-11-12T21:34:16.469Z,18.73
2018-11-12T21:36:44.770Z,17.17
2018-11-12T21:39:14.228Z,17.60
2018-11-12T21:41:42.910Z,19.00
2018-11-12T21:44:11.369Z,15.60
2018-11-12T21:46:40.059Z,15.50
2018-11-12T21:49:08.356Z,15.50
2018-11-12T21:51:36.766Z,16.33
2018-11-12T21:54:05.209Z,15.10
2018-11-12T21:56:33.513Z,18.30
2018-11-12T21:59:01.820Z,15.87
2018-11-12T22:01:30.294Z,16.73
2018-11-12T22:03:58.573Z,16.93
2018-11-12T22:06:27.772Z,15.43
2018-11-12T22:08:56.128Z,15.33
2018-11-12T22:11:24.585Z,14.47
2018-11-12T22:13:53.020Z,15.83
2018-11-12T22:16:22.712Z,15.80
2018-11-12T22:18:51.057Z,15.43
2018-11-12T22:21:19.474Z,16.70
2018-11-12T22:23:47.804Z,17.63
2018-11-12T22:26:16.343Z,14.47
2018-11-12T22:28:44.625Z,14.80
2018-11-12T22:31:12.926Z,15.30
2018-11-12T22:33:41.233Z,13.43
2018-11-12T22:36:09.643Z,13.60
2018-11-12T22:38:37.947Z,14.10
2018-11-12T22:41:06.296Z,14.07
2018-11-12T22:43:34.697Z,15.10
2018-11-12T22:46:03.158Z,18.00
2018-11-12T22:48:31.527Z,13.67
2018-11-12T22:50:59.797Z,13.90
2018-11-12T22:53:28.103Z,14.47
2018-11-12T22:55:56.421Z,14.03
2018-11-12T22:58:26.674Z,15.40
2018-11-12T23:00:55.016Z,15.57
2018-11-12T23:03:23.421Z,14.10
2018-11-12T23:05:56.077Z,14.87
2018-11-12T23:08:24.436Z,14.37
2018-11-12T23:10:52.773Z,15.20
2018-11-12T23:13:21.113Z,13.40
2018-11-12T23:15:49.465Z,13.73
2018-11-12T23:18:17.799Z,13.70
2018-11-12T23:20:46.139Z,12.93
2018-11-12T23:23:14.562Z,13.27
2018-11-12T23:25:42.913Z,12.63
2018-11-12T23:28:11.373Z,13.80
2018-11-12T23:30:39.740Z,12.93
2018-11-12T23:33:08.490Z,13.33
2018-11-12T23:35:36.922Z,12.83
2018-11-12T23:38:05.360Z,11.97
2018-11-12T23:40:33.706Z,11.43
2018-11-12T23:43:02.090Z,12.47
2018-11-12T23:45:30.426Z,13.53
2018-11-12T23:47:58.769Z,11.90
2018-11-12T23:50:27.234Z,11.03
2018-11-12T23:52:55.649Z,12.80
2018-11-12T23:55:23.996Z,24.27
2018-11-12T23:57:52.489Z,12.50
